LTBK Airport Information

Runway Information
Runway 17 Length 4453 ft width 131 ft
Elevation 432 ft Threshold 0 ft Heading 168
Runway 35 Length 4453 ft Width 131 ft
Elevation 425 ft Threshold 0 ft Heading 348
Airport Frequencies
Type APP Name MENDERES A Frequency 120.1 MHZ
Airport Navaids
Airport Weather Information & NOTAM
ADDS - METARS form results

(2227 UTC 19 September 2018)
Data provider http://aviationweather.gov/metar/data/
 
Forecast for: LTBK
Text: TAF LTBK 191340Z 1915/1924 33015G25KT CAVOK
Forecast period: 1500 to 1800 UTC 19 September 2018
Forecast type: FROM: standard forecast or significant change
Winds: from the NNW (330 degrees) at 17 MPH (15 knots; 7.7 m/s)
gusting to 29 MPH (25 knots; 12.9 m/s)
Visibility: 6 or more miles 10+ km)
Ceiling: unknown
Clouds: missing
Weather: NSW  (no significant weather)
Text: BECMG 1918/1921 33012KT
Forecast period: 1800 UTC 19 September 2018 to 0000 UTC 20 September 2018
Forecast type: BECOMING: Conditions expected to become as follows by 2100 UTC 19 September 2018
Winds: from the NNW (330 degrees) at 14 MPH (12 knots; 6.2 m/s)
Visibility: 6 or more miles 10+ km)
Ceiling: unknown
Clouds: missing
Weather: NSW  (no significant weather)